Main page
METAR-TAF:

METAR-TAF

Airports :

Ponta Pelada Airport

Manaus, Amazonas, Brazil

latitude: 03-09S, longitude: 059-59W, elevation: 84 m

Current weather observation

The report was made 52 minutes ago, at 23:00 UTC
Wind 2 kt from variable directions
Temperature 27°C
Humidity 84%
Pressure 1011 hPa
Visibility 10 km or more
no clouds below 1500 m and no cumulonimbus

METAR: SBMN 242300Z VRB02KT CAVOK 27/24 Q1011

Time: 19:52 (23:52 UTC)

Forecast

The report was made 2 hours and 52 minutes ago, at 21:00 UTC
Forecast valid from 25 at 00 UTC to 25 at 12 UTC
Wind 5 kt from the North
Visibility 10 km or more
Scattered clouds at a height of 2000 ft

TAF: SBMN 242100Z 2500/2512 35005KT 9999 SCT020 TX26/2500Z TN24/2510Z RMK PDJ

Weather observations and forecasts of more than 4000 airports (METAR and TAF reports).

The available stations are represented by yellow and red dots on the map.

Hover mouse over dot to see the name of the station.

Then click to see weather observations and forecasts.

To change the map : click on the green buttons with a black cross to zoom in, on the green button with a dash to zoom out, or on the green arrows for adjacent maps.


METAR-TAF: